China Lake Nwc, California
Current Conditions -  °F | °C
As of 6:56 AM on Wednesday 22 Oct 2014 (Local Time) from KNID Reporting Station
Clear Clear  
Wind Chill: 47°   Ceiling: Unl
Heat Index: 47°   Visibility: 10mi
Dew Point: 31°   Wind: 0mph
Humidity: 54%   Direction: NA
Pressure: 30.01"   Gusts: NA
Location:  35.7401°N, 117.453°W
Report Text: KNID 221356Z 00000KT 10SM CLR 08/M01 A3001 RMK AO2 SLP156 T00831006 $
Loading
Personal Weather Stations






























Interactive Weather Map
Tropical Storm Tracking
New forecast layout! Learn more

10-Day Weather Forecast

Advertisements
Track Severe Weather on mobile